Terminal Aerodrome Forecast
Issued by NWS

Home | Current Version | Previous Version | Text Only | Print | Product List | Glossary On
Versions: 1 2 3 4 5 6 7 8 9 10 11 12 13 14 15 16 17 18 19 20 21 22 23 24 25 26
245
FTUS45 KSLC 251737
TAFENV
TAF
KENV 251737Z 2518/2618 11007KT P6SM SKC
     FM260300 VRB04KT P6SM FEW100 SCT150
     FM260900 15005KT P6SM SCT100 BKN170
     FM261500 VRB05KT P6SM BKN150=

USA.gov is the U.S. government's official web portal to all federal, state and local government web resources and services.